Terminal Aerodrome Forecast
Issued by NWS

Home | Current Version | Previous Version | Text Only | Print | Product List | Glossary On
Versions: 1 2 3 4 5 6 7 8 9 10 11 12 13 14 15
000
FTUS41 KPBZ 260256 AAB
TAFFKL
TAF AMD
KFKL 260256Z 2603/2624 12008KT P6SM OVC009
     FM260900 11003KT 2SM BR OVC003
     FM261400 14004KT P6SM SCT015
      AMD LTD TO CLD VIS AND WIND=

USA.gov is the U.S. government's official web portal to all federal, state and local government web resources and services.